Time;durP1;ratioP1;P1;durP2;ratioP2;P2;SDS_P1;SDS_P2;PMS_P1;PMS_P2;Temp;Humidity;BMP_temperature;BMP_pressure;BME280_temperature;BME280_humidity;BME280_pressure;Samples;Min_cycle;Max_cycle;Signal;HPM_P1;HPM_P2
2023/02/21 02:15:18;;;;;;;13.13;6.65;;;;;;;5.84;100.00;100360.31;4983984;28;20054;-76
2023/02/21 02:18:21;;;;;;;7.82;4.68;;;;;;;5.64;100.00;100330.44;4986068;28;20045;-75
2023/02/21 02:21:13;;;;;;;12.98;6.53;;;;;;;4.62;100.00;100146.44;4979367;28;20461;-75
2023/02/21 02:24:04;;;;;;;9.52;5.18;;;;;;;4.80;100.00;100218.72;4986986;28;20204;-76
2023/02/21 02:27:00;;;;;;;13.80;6.43;;;;;;;5.71;100.00;100337.50;4989282;28;20050;-74
2023/02/21 02:29:31;;;;;;;8.98;5.18;;;;;;;5.69;100.00;100345.31;4976772;28;20065;-76
2023/02/21 02:32:34;;;;;;;8.75;5.32;;;;;;;5.63;100.00;100331.28;4985769;28;20899;-75
2023/02/21 02:35:08;;;;;;;8.95;4.80;;;;;;;5.54;100.00;100329.38;4981315;28;20046;-74
2023/02/21 02:37:54;;;;;;;10.77;5.32;;;;;;;4.83;100.00;100192.78;4981533;28;20050;-75
2023/02/21 02:40:39;;;;;;;12.25;5.30;;;;;;;4.99;100.00;100225.16;4986373;28;20134;-76
2023/02/21 02:43:30;;;;;;;11.65;6.88;;;;;;;5.54;100.00;100321.56;4986898;28;20069;-75
2023/02/21 02:46:37;;;;;;;8.43;4.65;;;;;;;4.74;100.00;100202.13;4992576;28;20263;-75
2023/02/21 02:49:15;;;;;;;7.50;4.63;;;;;;;5.26;100.00;100292.41;4943198;28;20433;-76
2023/02/21 02:51:40;;;;;;;12.70;5.13;;;;;;;5.21;100.00;100301.88;4947518;28;20113;-75
2023/02/21 02:54:06;;;;;;;7.72;4.93;;;;;;;5.49;100.00;100311.06;4984193;28;20129;-75
2023/02/21 02:56:34;;;;;;;10.40;6.15;;;;;;;5.16;100.00;100274.88;4984965;28;20045;-75
2023/02/21 02:59:32;;;;;;;11.30;5.68;;;;;;;5.45;100.00;100301.44;4983786;28;20069;-73
2023/02/21 03:02:18;;;;;;;12.65;6.47;;;;;;;4.54;100.00;100158.44;4981329;28;20069;-76
2023/02/21 03:05:01;;;;;;;8.77;4.90;;;;;;;5.38;100.00;100303.91;4983765;28;20034;-75
2023/02/21 03:07:55;;;;;;;7.20;5.10;;;;;;;4.46;100.00;100117.53;4984798;28;20042;-75
2023/02/21 03:10:48;;;;;;;12.57;5.30;;;;;;;4.76;100.00;100170.13;4994040;28;20050;-76
2023/02/21 03:13:38;;;;;;;10.05;4.80;;;;;;;5.39;100.00;100279.66;5009581;28;23390;-74
2023/02/21 03:16:08;;;;;;;10.25;5.68;;;;;;;5.43;100.00;100277.16;5005430;28;20057;-76
2023/02/21 03:18:44;;;;;;;11.50;6.32;;;;;;;4.58;100.00;100148.97;5007488;28;20048;-76
2023/02/21 03:21:16;;;;;;;8.73;5.18;;;;;;;4.58;100.00;100149.81;4993583;28;20517;-75
2023/02/21 03:23:44;;;;;;;10.52;5.10;;;;;;;5.19;100.00;100251.53;4997589;28;20037;-73
2023/02/21 03:26:13;;;;;;;9.27;5.68;;;;;;;4.01;100.00;100049.13;4977685;28;20399;-74
2023/02/21 03:28:40;;;;;;;9.30;5.50;;;;;;;4.62;100.00;100174.16;4983397;28;20070;-73
2023/02/21 03:31:09;;;;;;;9.57;5.57;;;;;;;5.35;100.00;100296.94;4981008;28;20516;-73
2023/02/21 03:33:34;;;;;;;11.70;6.82;;;;;;;4.85;100.00;100221.41;4980580;28;20046;-74
2023/02/21 03:36:03;;;;;;;16.08;7.07;;;;;;;5.31;100.00;100279.50;4977011;28;20046;-75
2023/02/21 03:38:30;;;;;;;16.45;6.07;;;;;;;5.27;100.00;100262.97;4982066;28;20034;-73
2023/02/21 03:40:56;;;;;;;10.80;5.95;;;;;;;4.36;100.00;100114.75;4989023;28;20046;-75
2023/02/21 03:43:21;;;;;;;11.27;6.30;;;;;;;4.51;100.00;100126.31;4986206;28;20077;-75
2023/02/21 03:45:47;;;;;;;11.18;7.13;;;;;;;4.40;100.00;100103.59;4982040;28;20167;-73
2023/02/21 03:48:12;;;;;;;8.90;4.65;;;;;;;5.28;100.00;100271.66;4983554;28;20062;-76
2023/02/21 03:50:38;;;;;;;9.45;6.55;;;;;;;4.99;100.00;100190.50;4985716;28;20034;-76
2023/02/21 03:53:03;;;;;;;7.95;5.15;;;;;;;5.24;100.00;100234.31;5002209;28;20061;-74
2023/02/21 03:55:29;;;;;;;9.38;5.20;;;;;;;4.35;100.00;100086.16;4997564;28;20049;-74
2023/02/21 03:57:54;;;;;;;15.73;6.70;;;;;;;4.79;100.00;100157.16;5004732;28;20426;-74
2023/02/21 04:00:20;;;;;;;13.63;6.38;;;;;;;4.91;100.00;100173.84;5006366;28;20053;-74
2023/02/21 04:02:46;;;;;;;10.23;5.53;;;;;;;5.42;100.00;100264.09;5003690;28;20064;-74
2023/02/21 04:05:11;;;;;;;12.27;5.40;;;;;;;5.18;100.00;100189.09;4995232;28;20139;-73
2023/02/21 04:07:37;;;;;;;7.55;4.28;;;;;;;5.35;100.00;100223.22;4995091;28;20050;-74
2023/02/21 04:10:02;;;;;;;7.88;4.72;;;;;;;4.90;100.00;100128.78;4994979;28;20054;-74
2023/02/21 04:12:28;;;;;;;8.57;4.85;;;;;;;5.69;100.00;100269.81;4988295;28;20124;-74
2023/02/21 04:14:55;;;;;;;10.93;4.55;;;;;;;5.02;100.00;100159.34;4986448;28;20065;-74
2023/02/21 04:17:21;;;;;;;7.53;4.68;;;;;;;5.78;100.00;100278.63;4977949;28;20085;-74
2023/02/21 04:19:46;;;;;;;8.70;4.90;;;;;;;4.86;100.00;100119.16;4978662;28;20046;-76
2023/02/21 04:22:12;;;;;;;12.93;5.22;;;;;;;4.94;100.00;100127.09;4978153;28;20054;-73
2023/02/21 04:24:37;;;;;;;8.95;4.55;;;;;;;5.27;100.00;100195.34;4985522;28;20054;-76
2023/02/21 04:27:03;;;;;;;8.48;4.60;;;;;;;5.61;100.00;100218.47;4983740;28;20066;-75
2023/02/21 04:29:28;;;;;;;9.30;4.75;;;;;;;5.05;100.00;100134.25;4984901;28;20113;-75
2023/02/21 04:31:54;;;;;;;11.65;5.50;;;;;;;5.10;100.00;100128.25;4981896;28;20050;-75
2023/02/21 04:34:20;;;;;;;9.80;4.53;;;;;;;5.25;100.00;100139.81;4977686;28;20526;-76
2023/02/21 04:36:46;;;;;;;8.68;5.25;;;;;;;5.13;100.00;100118.78;4972178;28;20209;-75
2023/02/21 04:39:11;;;;;;;11.05;5.50;;;;;;;5.73;100.00;100236.88;4979045;28;20054;-74
2023/02/21 04:41:37;;;;;;;10.07;4.78;;;;;;;5.06;100.00;100122.16;4982178;28;20030;-74
2023/02/21 04:44:02;;;;;;;11.45;5.70;;;;;;;5.85;100.00;100264.84;4979842;28;20074;-75
2023/02/21 04:46:28;;;;;;;10.10;4.72;;;;;;;5.58;100.00;100240.09;4976601;28;20043;-74
2023/02/21 04:48:54;;;;;;;17.73;5.72;;;;;;;5.80;100.00;100261.28;4978456;28;20058;-74
2023/02/21 04:51:22;;;;;;;8.65;4.95;;;;;;;5.19;100.00;100134.50;4985352;28;20055;-75
2023/02/21 04:53:49;;;;;;;8.35;5.03;;;;;;;5.80;100.00;100241.34;4981436;28;20039;-77
2023/02/21 04:56:18;;;;;;;7.80;5.45;;;;;;;5.21;100.00;100126.72;4975808;28;20042;-75
2023/02/21 04:58:43;;;;;;;7.97;4.68;;;;;;;5.10;100.00;100110.06;4982051;28;20050;-74
2023/02/21 05:01:10;;;;;;;11.95;5.32;;;;;;;5.80;100.00;100240.47;4980796;28;20058;-74
2023/02/21 05:03:36;;;;;;;7.68;5.05;;;;;;;5.63;100.00;100196.81;4983051;28;20065;-74
2023/02/21 05:06:01;;;;;;;8.70;5.57;;;;;;;5.78;100.00;100226.53;4979605;28;20503;-75
2023/02/21 05:08:27;;;;;;;8.02;5.35;;;;;;;5.08;100.00;100108.31;5001550;28;20055;-73
2023/02/21 05:10:53;;;;;;;13.40;5.40;;;;;;;5.29;100.00;100128.63;5002568;28;20108;-75
2023/02/21 05:13:19;;;;;;;12.02;5.22;;;;;;;5.23;100.00;100128.50;5002728;28;20356;-74
2023/02/21 05:15:45;;;;;;;13.20;5.78;;;;;;;5.36;100.00;100126.09;4994780;28;20100;-74
2023/02/21 05:18:12;;;;;;;12.65;6.45;;;;;;;5.82;100.00;100217.94;4985023;28;20416;-74
2023/02/21 05:20:37;;;;;;;11.95;5.28;;;;;;;5.32;100.00;100130.38;4983740;28;20185;-74
2023/02/21 05:23:02;;;;;;;10.10;6.05;;;;;;;5.29;100.00;100127.72;4983961;28;20448;-74
2023/02/21 05:25:28;;;;;;;10.48;5.03;;;;;;;6.02;100.00;100245.22;4975978;28;20383;-75
2023/02/21 05:27:53;;;;;;;13.27;5.55;;;;;;;5.83;100.00;100220.56;4990701;28;20042;-74
2023/02/21 05:30:22;;;;;;;8.82;5.20;;;;;;;5.35;100.00;100121.75;4993515;28;20050;-73
2023/02/21 05:32:48;;;;;;;11.88;5.70;;;;;;;6.01;100.00;100253.84;4996416;28;20384;-76
2023/02/21 05:35:15;;;;;;;12.73;5.68;;;;;;;5.78;100.00;100211.78;5002936;28;20401;-74
2023/02/21 05:37:41;;;;;;;9.30;5.63;;;;;;;5.92;100.00;100227.63;4998475;28;20054;-75
2023/02/21 05:40:10;;;;;;;8.40;4.43;;;;;;;6.09;100.00;100230.56;4995095;28;20582;-74
2023/02/21 05:42:36;;;;;;;9.55;5.35;;;;;;;5.99;100.00;100237.31;4982350;28;20074;-74
2023/02/21 05:45:05;;;;;;;12.88;6.03;;;;;;;5.25;100.00;100087.78;4977628;28;20776;-75
2023/02/21 05:47:33;;;;;;;19.70;7.00;;;;;;;5.23;100.00;100102.47;4976621;28;20083;-75
2023/02/21 05:49:59;;;;;;;7.82;4.95;;;;;;;5.18;100.00;100113.69;4984582;28;20523;-75
2023/02/21 05:52:24;;;;;;;8.27;5.38;;;;;;;5.25;100.00;100105.13;4978429;28;20053;-76
2023/02/21 05:54:50;;;;;;;9.35;5.00;;;;;;;5.32;100.00;100125.19;4979791;28;20046;-73
2023/02/21 05:57:15;;;;;;;7.72;4.90;;;;;;;6.04;100.00;100250.41;4980001;28;20514;-74
2023/02/21 05:59:41;;;;;;;12.05;5.10;;;;;;;5.09;100.00;100093.59;4981367;28;20132;-74
2023/02/21 06:02:06;;;;;;;8.77;5.07;;;;;;;5.27;100.00;100117.31;4975414;28;20141;-73
2023/02/21 06:04:32;;;;;;;13.15;5.03;;;;;;;6.16;100.00;100254.94;4979961;28;20058;-74
2023/02/21 06:06:57;;;;;;;11.38;5.18;;;;;;;5.24;100.00;100101.66;4978236;28;20768;-74
2023/02/21 06:09:23;;;;;;;13.02;7.30;;;;;;;5.93;100.00;100219.84;4982475;28;20062;-75
2023/02/21 06:11:48;;;;;;;10.50;5.15;;;;;;;5.58;100.00;100148.16;4978716;28;20499;-74
2023/02/21 06:14:19;;;;;;;11.18;6.50;;;;;;;6.28;100.00;100263.84;4998867;28;20033;-74
2023/02/21 06:16:46;;;;;;;6.45;3.70;;;;;;;6.26;100.00;100257.72;4982073;28;20050;-73
2023/02/21 06:19:15;;;;;;;7.78;4.95;;;;;;;6.20;100.00;100259.34;4978574;28;20129;-73
2023/02/21 06:21:41;;;;;;;7.57;5.05;;;;;;;5.56;100.00;100122.09;4976809;28;20038;-73
2023/02/21 06:24:08;;;;;;;11.05;5.93;;;;;;;6.24;100.00;100266.38;4979480;28;20107;-73
2023/02/21 06:26:33;;;;;;;18.45;5.22;;;;;;;6.34;100.00;100263.03;4998228;28;20038;-72
2023/02/21 06:28:59;;;;;;;9.57;5.78;;;;;;;6.24;100.00;100261.16;4998004;28;20061;-74
2023/02/21 06:31:25;;;;;;;8.82;5.53;;;;;;;6.40;100.00;100278.78;4991791;28;20042;-76
2023/02/21 06:33:51;;;;;;;9.45;5.72;;;;;;;6.00;100.00;100178.34;4976965;28;20050;-73
2023/02/21 06:36:20;;;;;;;10.23;5.18;;;;;;;6.29;100.00;100229.09;4971160;28;20510;-75
2023/02/21 06:38:50;;;;;;;12.68;6.88;;;;;;;6.52;100.00;100255.50;4976594;28;20046;-75
2023/02/21 06:41:18;;;;;;;15.10;6.85;;;;;;;6.51;100.00;100252.88;4973988;28;20058;-76
2023/02/21 06:43:44;;;;;;;37.88;7.07;;;;;;;6.61;100.00;100262.56;4979225;28;20061;-75
2023/02/21 06:46:14;;;;;;;8.48;5.13;;;;;;;6.70;100.00;100256.63;4983709;28;20062;-75
2023/02/21 06:48:39;;;;;;;14.95;5.57;;;;;;;6.69;100.00;100253.09;4981595;28;20061;-73
2023/02/21 06:51:09;;;;;;;10.45;4.88;;;;;;;6.02;100.00;100112.38;4987708;28;20042;-74
2023/02/21 06:53:34;;;;;;;10.20;5.15;;;;;;;6.79;100.00;100258.44;5004115;28;20114;-74
2023/02/21 06:55:59;;;;;;;16.48;6.05;;;;;;;6.79;100.00;100217.63;5001901;28;20050;-74
2023/02/21 06:58:25;;;;;;;16.75;5.80;;;;;;;7.06;100.00;100264.00;5005117;28;20065;-74
2023/02/21 07:00:51;;;;;;;12.15;7.25;;;;;;;6.29;100.00;100116.19;5007480;28;20380;-74
2023/02/21 07:03:16;;;;;;;13.60;5.05;;;;;;;7.17;100.00;100264.13;5001814;28;20054;-75
2023/02/21 07:05:42;;;;;;;15.60;5.88;;;;;;;7.18;100.00;100251.09;5004994;28;20033;-76
2023/02/21 07:08:08;;;;;;;19.85;5.47;;;;;;;7.11;100.00;100227.53;5005368;28;20100;-77
2023/02/21 07:10:34;;;;;;;10.88;5.30;;;;;;;6.55;100.00;100111.28;4992050;28;20766;-74
2023/02/21 07:12:59;;;;;;;11.15;7.95;;;;;;;6.84;100.00;100131.63;4987827;28;20046;-74
2023/02/21 07:15:25;;;;;;;18.10;5.53;;;;;;;6.51;100.00;100067.81;4983596;28;20150;-74
2023/02/21 07:17:51;;;;;;;8.23;4.55;;;;;;;7.09;100.00;100138.78;4985983;28;20039;-74
2023/02/21 07:20:16;;;;;;;12.32;7.97;;;;;;;7.77;100.00;100220.31;4988764;28;20092;-73
2023/02/21 07:22:42;;;;;;;11.30;7.53;;;;;;;7.32;100.00;100128.56;4983859;28;20467;-75
2023/02/21 07:25:07;;;;;;;15.85;7.60;;;;;;;7.68;100.00;100161.09;4980539;28;20059;-76
2023/02/21 07:27:33;;;;;;;10.18;5.20;;;;;;;7.31;100.00;100090.31;4982305;28;20046;-75
2023/02/21 07:29:58;;;;;;;12.40;6.95;;;;;;;7.49;100.00;100094.81;4983767;28;20034;-77
2023/02/21 07:32:24;;;;;;;12.02;6.63;;;;;;;8.10;100.00;100167.47;4985904;28;20361;-76
2023/02/21 07:34:49;;;;;;;14.93;8.25;;;;;;;8.61;100.00;100230.50;4982161;28;20053;-76
2023/02/21 07:37:15;;;;;;;11.85;7.78;;;;;;;8.71;100.00;100219.22;4986388;28;20518;-75
2023/02/21 07:39:40;;;;;;;17.02;6.97;;;;;;;8.33;100.00;100137.94;4984089;28;20116;-74
2023/02/21 07:42:09;;;;;;;13.98;6.70;;;;;;;8.64;100.00;100180.84;4993818;28;20088;-75
2023/02/21 07:44:34;;;;;;;10.77;7.10;;;;;;;9.05;100.00;100225.44;5008940;28;20033;-75
2023/02/21 07:47:00;;;;;;;18.45;7.50;;;;;;;9.08;100.00;100191.44;5001650;28;20854;-75
2023/02/21 07:49:25;;;;;;;16.10;7.65;;;;;;;9.35;100.00;100226.41;4991144;28;20487;-76
2023/02/21 07:51:51;;;;;;;12.43;6.50;;;;;;;9.16;100.00;100180.13;4983292;28;20046;-75
2023/02/21 07:54:17;;;;;;;22.35;6.47;;;;;;;9.35;100.00;100189.75;4991015;28;20445;-75
2023/02/21 07:56:44;;;;;;;15.35;6.25;;;;;;;9.08;100.00;100105.09;5001944;28;20377;-73
2023/02/21 07:59:10;;;;;;;17.10;6.88;;;;;;;9.12;99.46;100098.09;5010192;28;20050;-76
2023/02/21 08:01:35;;;;;;;9.00;5.80;;;;;;;8.92;97.62;100022.19;5003870;28;20061;-75
2023/02/21 08:04:01;;;;;;;18.88;6.95;;;;;;;9.66;96.58;100127.75;5001324;28;20050;-76
2023/02/21 08:06:26;;;;;;;12.65;6.97;;;;;;;9.41;95.12;100074.53;5003346;28;20528;-76
2023/02/21 08:08:52;;;;;;;8.90;6.65;;;;;;;9.54;94.78;100072.78;5008423;28;20057;-74
2023/02/21 08:11:17;;;;;;;16.08;6.93;;;;;;;9.72;92.90;100071.88;4999035;28;20183;-75
2023/02/21 08:13:43;;;;;;;15.45;6.18;;;;;;;10.04;90.29;100095.34;4991291;28;20047;-75
2023/02/21 08:16:08;;;;;;;19.30;6.35;;;;;;;10.68;87.89;100180.00;4985169;28;20612;-74
2023/02/21 08:18:34;;;;;;;12.98;7.57;;;;;;;10.34;86.86;100081.28;4982695;28;20065;-74
2023/02/21 08:20:59;;;;;;;29.23;7.65;;;;;;;11.05;84.40;100182.41;4985238;28;20030;-76
2023/02/21 08:23:25;;;;;;;12.45;5.57;;;;;;;10.49;82.14;100062.00;4975481;28;20050;-76
2023/02/21 08:25:50;;;;;;;26.35;6.70;;;;;;;10.76;80.67;100088.97;4991340;28;20112;-77
2023/02/21 08:28:16;;;;;;;19.45;7.53;;;;;;;11.41;78.98;100168.19;4981178;28;20104;-77
2023/02/21 08:30:42;;;;;;;12.05;5.22;;;;;;;11.01;76.34;100080.94;4988777;28;20422;-76
2023/02/21 08:33:08;;;;;;;21.80;6.78;;;;;;;11.50;75.72;100162.00;4979321;28;20091;-76
2023/02/21 08:35:34;;;;;;;12.70;4.85;;;;;;;11.52;75.84;100154.94;4987118;28;20043;-75
2023/02/21 08:38:02;;;;;;;10.20;5.82;;;;;;;11.14;74.95;100066.81;5003115;28;20494;-75
2023/02/21 08:40:32;;;;;;;10.95;5.85;;;;;;;11.20;73.35;100030.88;4990983;28;20046;-77
2023/02/21 08:42:59;;;;;;;8.70;4.40;;;;;;;11.97;71.49;100139.69;4967460;28;20042;-76
2023/02/21 08:45:26;;;;;;;18.92;6.88;;;;;;;11.77;70.27;100063.59;4982747;28;20046;-75
2023/02/21 08:47:53;;;;;;;31.27;7.72;;;;;;;12.43;68.45;100157.59;4982702;28;20038;-75
2023/02/21 08:50:20;;;;;;;43.33;7.70;;;;;;;12.46;68.03;100150.53;4988312;28;20053;-74
2023/02/21 08:52:46;;;;;;;19.63;6.40;;;;;;;12.55;67.23;100157.47;4986072;28;20145;-74
2023/02/21 08:55:12;;;;;;;24.48;6.70;;;;;;;12.12;66.14;100047.47;4985421;28;20506;-75
2023/02/21 08:57:38;;;;;;;10.88;5.97;;;;;;;12.81;65.40;100157.13;4993994;28;20038;-75
2023/02/21 09:00:11;;;;;;;12.88;6.05;;;;;;;12.29;64.95;100041.13;5006471;28;20037;-74
2023/02/21 09:02:39;;;;;;;10.27;5.88;;;;;;;12.44;64.13;100033.03;4987365;28;20034;-74
2023/02/21 09:05:10;;;;;;;17.77;6.30;;;;;;;13.14;63.54;100141.75;4984497;28;20447;-75
2023/02/21 09:07:36;;;;;;;13.25;5.82;;;;;;;12.72;62.99;100037.91;4989587;28;20152;-72
2023/02/21 09:10:02;;;;;;;13.65;5.97;;;;;;;12.84;62.80;100027.19;4988071;28;20074;-74
2023/02/21 09:12:28;;;;;;;8.02;4.88;;;;;;;13.54;62.21;100132.38;4983290;28;20057;-73
2023/02/21 09:14:53;;;;;;;21.45;6.00;;;;;;;13.63;61.92;100153.31;4988050;28;20027;-75
2023/02/21 09:17:19;;;;;;;15.13;6.97;;;;;;;13.51;61.98;100138.56;4986466;28;20144;-72
2023/02/21 09:19:44;;;;;;;23.65;6.80;;;;;;;13.55;61.41;100134.97;4989952;28;20566;-73
2023/02/21 09:22:10;;;;;;;13.13;6.22;;;;;;;13.62;61.32;100120.78;4983902;28;20490;-75
2023/02/21 09:24:36;;;;;;;10.55;6.68;;;;;;;13.80;60.83;100145.97;4986706;28;20034;-73
2023/02/21 09:27:03;;;;;;;13.52;6.85;;;;;;;13.93;60.72;100139.59;4984850;28;20415;-74
2023/02/21 09:29:31;;;;;;;16.80;6.78;;;;;;;13.52;60.11;100041.00;4988198;28;20450;-75
2023/02/21 09:31:57;;;;;;;12.25;5.70;;;;;;;13.19;59.77;100005.53;4978887;28;20046;-76
2023/02/21 09:34:23;;;;;;;10.15;6.93;;;;;;;14.27;60.02;100135.44;4987630;28;20054;-75
2023/02/21 09:36:49;;;;;;;14.60;6.47;;;;;;;14.02;59.90;100130.59;4984890;28;20047;-77
2023/02/21 09:39:16;;;;;;;12.75;6.35;;;;;;;13.51;59.66;100015.53;4982763;28;20047;-76
2023/02/21 09:41:45;;;;;;;9.52;6.03;;;;;;;13.62;60.21;100030.28;4984324;28;20046;-74
2023/02/21 09:44:29;;;;;;;13.80;7.65;;;;;;;14.56;58.91;100114.63;4988177;28;20050;-76
2023/02/21 09:47:01;;;;;;;18.80;5.70;;;;;;;13.95;58.73;100007.66;4970435;28;20051;-75
2023/02/21 09:49:39;;;;;;;39.63;5.93;;;;;;;14.14;58.29;100042.44;4983125;28;20047;-75
2023/02/21 09:52:12;;;;;;;14.32;5.47;;;;;;;14.23;57.43;100013.22;4987355;28;20039;-76
2023/02/21 09:54:45;;;;;;;10.57;5.68;;;;;;;14.64;57.02;100113.59;4982314;28;20042;-76
2023/02/21 09:57:13;;;;;;;;;;;;;;;14.67;56.87;100118.81;4982023;28;20402;-74
2023/02/21 09:59:38;;;;;;;11.13;5.28;;;;;;;14.91;56.92;100113.00;4985965;28;19921;-79
2023/02/21 10:02:14;;;;;;;12.32;4.85;;;;;;;14.85;56.35;100117.53;4965510;28;20120;-77
2023/02/21 10:05:22;;;;;;;9.77;5.20;;;;;;;14.98;56.72;100111.06;4980615;28;20077;-76
2023/02/21 10:08:25;;;;;;;13.98;5.32;;;;;;;14.89;56.02;100090.13;4967374;28;20058;-76
2023/02/21 10:10:57;;;;;;;8.52;4.63;;;;;;;14.89;55.92;100067.25;4982474;28;22820;-77
2023/02/21 10:13:30;;;;;;;11.55;3.85;;;;;;;15.09;55.27;100087.03;4982537;28;20058;-77
2023/02/21 10:16:01;;;;;;;20.13;4.13;;;;;;;15.24;55.13;100083.13;4986698;28;20502;-76
2023/02/21 10:18:55;;;;;;;8.55;4.82;;;;;;;15.37;54.04;100066.94;4996784;28;20073;-77
2023/02/21 10:21:45;;;;;;;12.15;4.03;;;;;;;15.71;53.65;100052.88;4992559;28;20045;-75
2023/02/21 10:24:19;;;;;;;19.08;4.57;;;;;;;15.43;52.61;99972.50;4976467;28;20085;-75
2023/02/21 10:27:05;;;;;;;16.33;5.93;;;;;;;15.64;51.54;100019.53;4988667;28;20030;-75
2023/02/21 10:30:03;;;;;;;12.63;5.22;;;;;;;15.99;51.47;100037.13;4990087;28;20049;-75
2023/02/21 10:32:29;;;;;;;7.47;4.22;;;;;;;16.13;51.05;100025.25;4982635;28;20058;-75
2023/02/21 10:34:57;;;;;;;12.50;5.15;;;;;;;16.15;51.31;100026.06;4987241;28;20043;-75
2023/02/21 10:37:39;;;;;;;14.02;5.30;;;;;;;16.42;50.82;100033.19;4987331;28;21349;-77
2023/02/21 10:40:29;;;;;;;9.88;4.20;;;;;;;16.46;51.01;100012.81;4985483;28;20050;-74
2023/02/21 10:43:07;;;;;;;12.10;6.03;;;;;;;16.20;50.65;100034.75;4984281;28;20093;-75
2023/02/21 10:46:15;;;;;;;25.55;4.45;;;;;;;16.37;50.91;100035.13;4989963;28;20129;-73
2023/02/21 10:48:43;;;;;;;12.73;4.97;;;;;;;16.20;50.28;99942.09;4997218;28;20065;-73
2023/02/21 10:51:10;;;;;;;14.50;4.30;;;;;;;16.76;49.60;100010.94;5008409;28;20045;-74
2023/02/21 10:53:37;;;;;;;7.53;3.40;;;;;;;16.75;49.04;100008.38;5003311;28;20062;-74
2023/02/21 10:56:07;;;;;;;21.05;4.80;;;;;;;17.09;48.78;100002.84;4987890;28;20145;-75
2023/02/21 10:58:34;;;;;;;10.98;6.15;;;;;;;17.17;48.88;99978.75;5001302;28;20045;-75
2023/02/21 11:01:16;;;;;;;9.55;4.28;;;;;;;17.67;48.23;99960.16;5013147;28;20121;-76
2023/02/21 11:03:50;;;;;;;11.05;5.60;;;;;;;17.71;47.76;99996.28;5001285;28;20080;-74
2023/02/21 11:06:31;;;;;;;21.30;4.72;;;;;;;17.82;47.39;99982.69;5007294;28;20125;-74
2023/02/21 11:08:58;;;;;;;7.70;4.55;;;;;;;17.36;47.78;99966.56;5007006;28;20044;-75
2023/02/21 11:11:38;;;;;;;11.38;4.22;;;;;;;16.85;48.27;99925.88;4999193;28;20062;-74
2023/02/21 11:14:21;;;;;;;16.75;5.13;;;;;;;17.01;48.33;99960.69;5009735;28;20065;-74
2023/02/21 11:17:05;;;;;;;21.60;4.43;;;;;;;17.44;48.28;99971.59;4987679;28;20058;-75
2023/02/21 11:19:47;;;;;;;16.08;4.22;;;;;;;17.40;47.65;99962.03;4984245;28;20490;-74
2023/02/21 11:22:14;;;;;;;14.70;4.75;;;;;;;17.46;47.54;99960.00;4976525;28;20509;-74
2023/02/21 11:24:50;;;;;;;8.02;3.92;;;;;;;16.65;47.34;99854.16;4995156;28;20066;-74
2023/02/21 11:27:16;;;;;;;9.35;4.05;;;;;;;16.94;47.52;99902.66;5004356;28;20054;-73
2023/02/21 11:29:46;;;;;;;10.35;4.82;;;;;;;17.09;47.54;99941.88;5002780;28;20493;-75
2023/02/21 11:32:23;;;;;;;8.82;4.32;;;;;;;16.93;47.07;99834.66;4985826;28;20045;-78
2023/02/21 11:34:50;;;;;;;7.80;4.25;;;;;;;17.42;46.41;99854.97;5002103;28;20042;-78
2023/02/21 11:37:16;;;;;;;14.30;5.05;;;;;;;18.24;46.47;99953.63;5006358;28;20148;-78
2023/02/21 11:39:49;;;;;;;7.28;3.42;;;;;;;17.66;45.95;99855.81;4998392;28;20132;-76
2023/02/21 11:42:33;;;;;;;18.73;4.97;;;;;;;17.08;45.92;99829.69;5006945;28;20199;-76
2023/02/21 11:45:20;;;;;;;;;;;;;;;17.74;45.71;99943.09;5011486;28;20488;-76
2023/02/21 11:48:16;;;;;;;8.35;3.50;;;;;;;17.57;45.60;99945.53;5008079;28;20019;-77
2023/02/21 11:50:48;;;;;;;13.35;4.47;;;;;;;17.42;45.55;99886.81;5006230;28;20038;-76
2023/02/21 11:53:14;;;;;;;11.70;4.22;;;;;;;17.58;45.83;99932.19;4988410;28;20124;-77
2023/02/21 11:55:46;;;;;;;12.43;4.30;;;;;;;17.83;45.94;99923.34;4982251;28;20494;-76
2023/02/21 11:58:25;;;;;;;17.73;4.13;;;;;;;17.10;46.19;99811.06;4980618;28;20517;-77
2023/02/21 12:01:02;;;;;;;7.88;4.68;;;;;;;17.87;45.82;99901.94;4979045;28;20034;-77
2023/02/21 12:04:00;;;;;;;7.90;4.05;;;;;;;18.19;45.69;99910.47;4980091;28;20573;-77
2023/02/21 12:06:34;;;;;;;14.50;4.00;;;;;;;18.21;45.59;99897.97;4971377;28;20197;-76
2023/02/21 12:09:18;;;;;;;17.92;3.97;;;;;;;18.05;44.71;99912.75;4990078;28;20032;-77
2023/02/21 12:12:21;;;;;;;24.17;3.28;;;;;;;17.95;43.98;99898.13;4989073;28;20053;-77
2023/02/21 12:15:00;;;;;;;6.70;4.33;;;;;;;17.85;44.05;99916.19;5002686;28;20116;-78
2023/02/21 12:17:43;;;;;;;9.88;3.15;;;;;;;17.85;44.52;99898.47;5001935;28;20116;-77
2023/02/21 12:20:42;;;;;;;15.43;4.05;;;;;;;17.83;45.08;99900.31;5000811;28;20398;-78
2023/02/21 12:23:37;;;;;;;10.82;3.47;;;;;;;17.62;45.12;99845.38;5001040;28;20034;-78
2023/02/21 12:26:09;;;;;;;8.68;3.55;;;;;;;17.75;45.22;99896.19;5004259;28;20212;-77
2023/02/21 12:29:01;;;;;;;13.00;4.30;;;;;;;17.70;45.35;99896.41;5002451;28;20474;-75
2023/02/21 12:31:34;;;;;;;6.60;3.45;;;;;;;16.72;45.20;99725.00;5004258;28;20170;-77
2023/02/21 12:34:10;;;;;;;8.68;3.58;;;;;;;17.62;44.92;99887.84;5002332;28;21813;-78
2023/02/21 12:37:13;;;;;;;36.10;5.25;;;;;;;17.55;45.22;99894.31;5002198;28;20065;-79
2023/02/21 12:39:54;;;;;;;11.43;2.75;;;;;;;17.48;45.56;99881.25;4996927;28;20049;-78
2023/02/21 12:42:42;;;;;;;5.68;3.40;;;;;;;17.49;45.23;99887.44;5021007;28;20057;-78
2023/02/21 12:45:46;;;;;;;10.27;3.88;;;;;;;17.39;45.76;99878.06;5001675;28;20046;-77
2023/02/21 12:48:46;;;;;;;27.25;4.63;;;;;;;17.55;45.65;99875.72;5007828;28;20046;-76
2023/02/21 12:51:29;;;;;;;9.25;3.05;;;;;;;17.54;45.54;99866.06;5002701;28;20070;-73
2023/02/21 12:54:09;;;;;;;13.00;3.10;;;;;;;16.92;46.04;99779.94;5001756;28;20033;-73
2023/02/21 12:56:51;;;;;;;13.85;3.60;;;;;;;17.55;45.43;99865.13;5006754;28;20115;-73
2023/02/21 12:59:32;;;;;;;7.90;3.30;;;;;;;17.43;45.83;99879.69;5000237;28;20065;-72
2023/02/21 13:02:07;;;;;;;9.77;3.50;;;;;;;17.61;44.57;99870.19;5001241;28;20049;-72
2023/02/21 13:05:02;;;;;;;10.55;4.20;;;;;;;17.61;44.43;99873.72;5003152;28;20049;-73
2023/02/21 13:07:41;;;;;;;6.03;3.08;;;;;;;17.78;44.38;99861.59;4994890;28;20068;-72
2023/02/21 13:10:19;;;;;;;6.60;3.42;;;;;;;17.87;43.92;99848.84;4994967;28;21548;-73
2023/02/21 13:12:57;;;;;;;6.70;4.03;;;;;;;17.98;43.83;99866.16;4986488;28;20137;-73
2023/02/21 13:15:26;;;;;;;8.43;4.07;;;;;;;17.82;43.48;99810.16;4984473;28;20054;-74
2023/02/21 13:17:59;;;;;;;6.80;3.42;;;;;;;17.88;43.66;99863.84;4987563;28;20389;-74
2023/02/21 13:20:29;;;;;;;15.75;3.53;;;;;;;17.98;43.70;99845.78;5001826;28;20465;-73
2023/02/21 13:26:38;;;;;;;12.50;4.00;;;;;;;17.82;44.72;99849.97;4983709;28;20170;-72
2023/02/21 13:29:19;;;;;;;7.40;3.80;;;;;;;17.18;45.29;99749.81;5000618;28;20050;-74
2023/02/21 13:31:45;;;;;;;10.75;3.45;;;;;;;17.04;45.15;99780.38;5002331;28;20062;-74
2023/02/21 13:34:17;;;;;;;21.17;4.22;;;;;;;16.73;45.94;99750.56;5004608;28;20509;-73
2023/02/21 13:36:45;;;;;;;10.00;3.60;;;;;;;17.30;45.28;99856.28;5004279;28;20057;-73
2023/02/21 13:39:17;;;;;;;10.18;2.95;;;;;;;17.05;45.54;99843.03;5002602;28;20089;-72
2023/02/21 13:41:50;;;;;;;13.77;3.90;;;;;;;16.94;45.99;99844.34;4982503;28;20038;-74
2023/02/21 13:44:37;;;;;;;14.68;3.97;;;;;;;16.58;46.28;99789.91;4982524;28;20503;-78
2023/02/21 13:47:17;;;;;;;13.80;4.32;;;;;;;16.57;46.36;99771.41;4988607;28;20089;-78
2023/02/21 13:49:49;;;;;;;6.50;3.28;;;;;;;16.98;46.82;99836.25;4990139;28;20046;-78
2023/02/21 13:52:23;;;;;;;8.77;3.70;;;;;;;17.15;46.93;99848.88;4987435;28;20121;-79
2023/02/21 13:55:20;;;;;;;8.45;4.40;;;;;;;17.11;46.82;99863.16;4989381;28;20538;-78
2023/02/21 13:57:56;;;;;;;15.13;4.35;;;;;;;16.95;46.28;99778.06;4978830;28;20047;-80
2023/02/21 14:00:24;;;;;;;13.10;5.32;;;;;;;17.41;46.33;99858.53;4989797;28;20066;-80
2023/02/21 14:03:17;;;;;;;14.35;9.25;;;;;;;17.17;46.50;99860.28;4987088;28;20523;-79